Time;durP1;ratioP1;P1;durP2;ratioP2;P2;SDS_P1;SDS_P2;PMS_P1;PMS_P2;Temp;Humidity;BMP_temperature;BMP_pressure;BME280_temperature;BME280_humidity;BME280_pressure;Samples;Min_cycle;Max_cycle;Signal;HPM_P1;HPM_P2
2022/04/13 00:01:31;;;;;;;4.30;3.90;;;15.10;97.50;;;;;;5974755;23;20446;-75
2022/04/13 00:03:58;;;;;;;6.17;4.23;;;15.10;97.60;;;;;;5975077;23;20539;-74
2022/04/13 00:06:26;;;;;;;5.63;3.87;;;15.20;97.60;;;;;;5975677;24;20539;-75
2022/04/13 00:08:55;;;;;;;5.80;3.60;;;15.10;97.30;;;;;;5976488;23;20453;-74
2022/04/13 00:11:23;;;;;;;4.13;3.73;;;15.10;97.20;;;;;;5978585;23;20458;-74
2022/04/13 00:13:50;;;;;;;4.20;3.80;;;15.00;97.10;;;;;;5979535;23;20632;-75
2022/04/13 00:16:17;;;;;;;3.70;3.10;;;14.90;97.00;;;;;;5974072;23;20943;-75
2022/04/13 00:18:44;;;;;;;3.73;3.43;;;14.90;96.90;;;;;;5976436;23;20510;-75
2022/04/13 00:21:11;;;;;;;4.07;3.73;;;14.80;96.90;;;;;;5975985;24;20935;-75
2022/04/13 00:23:40;;;;;;;5.33;3.30;;;14.80;96.70;;;;;;5975998;24;20452;-75
2022/04/13 00:26:07;;;;;;;5.60;4.00;;;14.70;96.60;;;;;;5976581;24;20441;-75
2022/04/13 00:28:34;;;;;;;3.70;3.40;;;14.70;96.80;;;;;;5975342;23;20548;-75
2022/04/13 00:31:01;;;;;;;4.00;3.60;;;14.70;96.90;;;;;;5975345;23;20455;-75
2022/04/13 00:33:28;;;;;;;3.80;3.50;;;14.60;97.00;;;;;;5975431;24;20451;-74
2022/04/13 00:35:55;;;;;;;4.40;3.20;;;14.60;97.20;;;;;;5976665;24;20560;-75
2022/04/13 00:38:23;;;;;;;4.03;3.67;;;14.50;97.20;;;;;;5975327;23;20468;-74
2022/04/13 00:40:51;;;;;;;3.60;3.30;;;14.50;97.20;;;;;;5976661;24;20483;-75
2022/04/13 00:43:19;;;;;;;4.40;3.00;;;14.40;97.30;;;;;;5974906;23;20470;-75
2022/04/13 00:45:46;;;;;;;3.23;3.00;;;14.30;97.30;;;;;;5976751;23;20519;-75
2022/04/13 00:48:20;;;;;;;3.60;3.30;;;14.30;97.40;;;;;;5971108;23;20463;-75
2022/04/13 00:50:47;;;;;;;3.43;3.13;;;14.30;97.60;;;;;;5949194;23;20528;-75
2022/04/13 00:53:15;;;;;;;3.27;3.03;;;14.20;97.70;;;;;;5975799;24;20528;-75
2022/04/13 00:55:44;;;;;;;3.67;3.37;;;14.10;97.90;;;;;;5977495;24;20530;-75
2022/04/13 00:58:16;;;;;;;3.90;3.43;;;14.10;98.00;;;;;;5976386;23;20472;-75
2022/04/13 01:00:48;;;;;;;4.10;3.60;;;14.00;98.40;;;;;;5977633;24;20856;-75
2022/04/13 01:03:18;;;;;;;4.07;3.73;;;13.90;98.80;;;;;;5975291;23;20866;-74
2022/04/13 01:05:47;;;;;;;3.97;3.67;;;14.00;99.20;;;;;;5976758;24;20460;-74
2022/04/13 01:08:15;;;;;;;4.07;3.67;;;13.80;99.50;;;;;;5975646;23;20465;-73
2022/04/13 01:10:43;;;;;;;3.90;3.57;;;13.70;99.40;;;;;;5975626;23;20860;-74
2022/04/13 01:13:09;;;;;;;4.57;4.17;;;13.60;99.50;;;;;;5977265;24;20450;-74
2022/04/13 01:15:38;;;;;;;3.47;3.17;;;13.50;99.60;;;;;;5976156;24;20477;-74
2022/04/13 01:18:06;;;;;;;3.92;3.53;;;13.50;99.90;;;;;;5977655;23;20215;-75
2022/04/13 01:20:34;;;;;;;4.17;3.77;;;13.50;99.90;;;;;;5976315;23;20219;-74
2022/04/13 01:23:02;;;;;;;3.40;3.10;;;13.50;99.90;;;;;;5975696;24;21394;-74
2022/04/13 01:25:30;;;;;;;3.50;3.20;;;13.50;99.80;;;;;;5976055;23;20500;-74
2022/04/13 01:27:57;;;;;;;4.10;3.70;;;13.60;99.50;;;;;;5976412;23;20514;-74
2022/04/13 01:30:24;;;;;;;4.97;3.27;;;13.70;99.20;;;;;;5972462;23;20451;-75
2022/04/13 01:32:52;;;;;;;3.80;3.50;;;13.70;99.00;;;;;;5976061;24;20442;-75
2022/04/13 01:35:19;;;;;;;4.23;3.83;;;14.00;99.20;;;;;;5976171;23;20253;-75
2022/04/13 01:37:46;;;;;;;5.30;4.80;;;13.80;99.20;;;;;;5975911;23;21002;-75
2022/04/13 01:40:14;;;;;;;4.73;4.33;;;13.90;99.30;;;;;;5977116;23;20484;-74
2022/04/13 01:42:44;;;;;;;5.47;4.97;;;13.90;99.40;;;;;;5974298;23;20531;-75
2022/04/13 01:45:11;;;;;;;5.80;5.20;;;14.00;99.70;;;;;;5976245;24;20497;-74
2022/04/13 01:47:38;;;;;;;5.17;4.77;;;14.00;99.90;;;;;;5971547;23;20462;-75
2022/04/13 01:50:08;;;;;;;5.73;5.23;;;14.00;99.90;;;;;;5976065;24;20453;-75
2022/04/13 01:52:35;;;;;;;5.63;5.13;;;13.90;99.90;;;;;;5976779;24;20447;-75
2022/04/13 01:55:02;;;;;;;6.13;5.27;;;14.00;99.90;;;;;;5973636;23;20475;-76
2022/04/13 01:57:30;;;;;;;7.43;6.07;;;14.10;99.90;;;;;;5970143;23;23689;-74
2022/04/13 01:59:57;;;;;;;7.07;6.37;;;14.00;99.90;;;;;;5972995;23;20529;-74
2022/04/13 02:02:24;;;;;;;8.17;6.30;;;14.00;99.90;;;;;;5977061;24;20440;-74
2022/04/13 02:04:51;;;;;;;6.70;6.00;;;14.00;99.90;;;;;;5975727;24;20462;-75
2022/04/13 02:07:18;;;;;;;8.00;6.80;;;14.00;99.90;;;;;;5976857;23;20534;-73
2022/04/13 02:09:45;;;;;;;6.73;6.13;;;14.00;99.90;;;;;;5975298;23;20458;-75
2022/04/13 02:12:12;;;;;;;6.47;5.87;;;14.00;99.90;;;;;;5976538;24;20435;-75
2022/04/13 02:14:40;;;;;;;7.77;5.77;;;13.90;99.90;;;;;;5975155;24;20551;-75
2022/04/13 02:17:07;;;;;;;6.60;5.90;;;14.00;99.90;;;;;;5975329;23;20530;-74
2022/04/13 02:19:34;;;;;;;7.30;5.57;;;14.00;99.90;;;;;;5975158;23;20470;-75
2022/04/13 02:22:01;;;;;;;6.07;5.47;;;14.00;99.90;;;;;;5974446;23;20795;-75
2022/04/13 02:24:28;;;;;;;6.53;5.83;;;14.00;99.90;;;;;;5976371;23;20481;-75
2022/04/13 02:26:55;;;;;;;7.20;5.20;;;14.00;99.90;;;;;;5975928;24;20475;-75
2022/04/13 02:29:22;;;;;;;6.90;6.03;;;14.00;99.90;;;;;;5977150;23;20558;-73
2022/04/13 02:31:50;;;;;;;6.73;5.90;;;13.90;99.90;;;;;;5975295;24;20546;-75
2022/04/13 02:34:18;;;;;;;6.50;5.60;;;13.90;99.90;;;;;;5975675;24;20559;-75
2022/04/13 02:36:45;;;;;;;6.37;5.77;;;13.90;99.90;;;;;;5968090;24;20453;-75
2022/04/13 02:39:12;;;;;;;7.13;5.70;;;13.90;99.90;;;;;;5971205;23;20471;-75
2022/04/13 02:41:40;;;;;;;8.67;6.37;;;13.80;99.90;;;;;;5976921;24;20513;-75
2022/04/13 02:44:07;;;;;;;6.00;5.33;;;13.80;99.90;;;;;;5974544;24;20482;-75
2022/04/13 02:46:35;;;;;;;5.73;5.23;;;13.70;99.90;;;;;;5969729;23;20897;-75
2022/04/13 02:49:03;;;;;;;7.75;5.43;;;13.60;99.90;;;;;;5971317;23;20470;-75
2022/04/13 02:51:30;;;;;;;7.70;6.00;;;13.60;99.90;;;;;;5966586;24;20200;-74
2022/04/13 02:53:57;;;;;;;7.47;5.70;;;13.50;99.90;;;;;;5976457;24;20270;-75
2022/04/13 02:56:24;;;;;;;9.03;5.80;;;13.40;99.90;;;;;;5975840;24;20530;-74
2022/04/13 02:58:51;;;;;;;7.00;6.30;;;13.30;99.90;;;;;;5964501;24;20459;-74
2022/04/13 03:01:18;;;;;;;6.50;5.90;;;13.30;99.90;;;;;;5974625;23;20529;-74
2022/04/13 03:03:45;;;;;;;7.10;6.40;;;13.20;99.90;;;;;;5976586;24;20450;-75
2022/04/13 03:06:13;;;;;;;6.20;5.60;;;13.10;99.90;;;;;;5975709;23;20230;-74
2022/04/13 03:08:40;;;;;;;7.05;6.45;;;12.90;99.90;;;;;;5975426;23;20219;-74
2022/04/13 03:11:08;;;;;;;7.00;6.40;;;12.90;99.90;;;;;;5976702;24;20190;-74
2022/04/13 03:13:36;;;;;;;7.25;6.53;;;12.90;99.90;;;;;;5974084;23;20265;-74
2022/04/13 03:16:04;;;;;;;7.00;6.38;;;12.70;99.90;;;;;;5976674;24;20215;-74
2022/04/13 03:18:31;;;;;;;6.90;6.30;;;12.60;99.90;;;;;;5975791;23;20238;-74
2022/04/13 03:20:57;;;;;;;7.15;6.55;;;12.50;99.90;;;;;;5975557;23;20586;-74
2022/04/13 03:23:26;;;;;;;8.50;7.35;;;12.60;99.90;;;;;;5975486;24;20866;-74
2022/04/13 03:25:53;;;;;;;9.32;7.60;;;12.30;99.90;;;;;;5976712;24;20261;-74
2022/04/13 03:28:23;;;;;;;9.73;7.30;;;12.30;99.90;;;;;;5975312;23;20681;-74
2022/04/13 03:30:52;;;;;;;9.07;7.28;;;12.20;99.90;;;;;;5976546;24;20661;-74
2022/04/13 03:33:19;;;;;;;8.50;7.63;;;12.20;99.90;;;;;;5974295;24;20197;-74
2022/04/13 03:35:46;;;;;;;6.50;5.90;;;12.20;99.90;;;;;;5972926;24;20571;-74
2022/04/13 03:38:13;;;;;;;7.55;6.85;;;12.20;99.90;;;;;;5976831;23;20238;-74
2022/04/13 03:40:41;;;;;;;6.63;6.00;;;12.20;99.90;;;;;;5974362;23;20199;-75
2022/04/13 03:43:08;;;;;;;8.07;7.25;;;12.20;99.90;;;;;;5976346;24;20694;-74
2022/04/13 03:45:36;;;;;;;6.70;6.18;;;12.20;99.90;;;;;;5975557;24;20222;-75
2022/04/13 03:48:03;;;;;;;6.90;6.25;;;12.10;99.90;;;;;;5976020;23;20218;-74
2022/04/13 03:50:29;;;;;;;8.05;6.30;;;12.20;99.90;;;;;;5975568;24;20269;-74
2022/04/13 03:52:57;;;;;;;7.03;6.30;;;12.20;99.90;;;;;;5976303;24;20277;-74
2022/04/13 03:55:24;;;;;;;7.88;7.10;;;12.10;99.90;;;;;;5974780;23;20211;-74
2022/04/13 03:57:53;;;;;;;7.03;6.47;;;12.10;99.90;;;;;;5976821;23;20648;-75
2022/04/13 04:00:20;;;;;;;7.45;6.60;;;12.10;99.90;;;;;;5965983;23;20191;-75
2022/04/13 04:02:47;;;;;;;8.73;6.90;;;12.10;99.90;;;;;;5976506;24;20266;-75
2022/04/13 04:05:14;;;;;;;9.07;6.50;;;12.10;99.90;;;;;;5973734;24;20539;-74
2022/04/13 04:07:41;;;;;;;8.05;6.13;;;12.10;99.90;;;;;;5974666;23;20222;-74
2022/04/13 04:10:10;;;;;;;7.20;6.57;;;12.10;99.90;;;;;;5975004;24;20601;-74
2022/04/13 04:12:38;;;;;;;7.47;6.45;;;12.10;99.90;;;;;;5976025;24;20213;-73
2022/04/13 04:15:08;;;;;;;6.88;6.18;;;12.10;99.90;;;;;;5975265;23;20226;-74
2022/04/13 04:17:35;;;;;;;7.85;6.85;;;12.10;99.90;;;;;;5976359;23;20214;-74
2022/04/13 04:20:02;;;;;;;6.85;6.13;;;12.00;99.90;;;;;;5974318;23;20934;-75
2022/04/13 04:22:29;;;;;;;6.18;5.63;;;12.20;99.90;;;;;;5952186;23;20284;-74
2022/04/13 04:24:56;;;;;;;7.38;6.28;;;12.00;99.90;;;;;;5959463;23;20524;-74
2022/04/13 04:27:23;;;;;;;7.00;6.30;;;12.00;99.90;;;;;;5975067;23;20842;-75
2022/04/13 04:29:50;;;;;;;9.40;6.40;;;12.20;99.90;;;;;;5975968;24;20302;-76
2022/04/13 04:32:19;;;;;;;6.88;6.18;;;12.00;99.90;;;;;;5967289;23;20249;-73
2022/04/13 04:34:46;;;;;;;6.30;5.70;;;12.00;99.90;;;;;;5960263;24;20187;-74
2022/04/13 04:37:13;;;;;;;6.22;5.63;;;11.90;99.90;;;;;;5965905;23;20237;-73
2022/04/13 04:39:40;;;;;;;6.65;5.95;;;11.90;99.90;;;;;;5974968;23;20274;-74
2022/04/13 04:42:08;;;;;;;6.10;5.57;;;11.90;99.90;;;;;;5981392;23;20191;-74
2022/04/13 04:44:35;;;;;;;6.40;5.57;;;11.90;99.90;;;;;;5973900;23;20191;-74
2022/04/13 04:47:02;;;;;;;6.43;5.70;;;11.90;99.90;;;;;;5987814;23;20215;-74
2022/04/13 04:49:30;;;;;;;6.30;5.55;;;11.90;99.90;;;;;;5978265;23;20630;-73
2022/04/13 04:51:57;;;;;;;7.70;5.82;;;11.90;99.90;;;;;;5973453;24;20270;-75
2022/04/13 04:54:24;;;;;;;5.38;4.93;;;12.10;99.90;;;;;;5956558;23;20189;-75
2022/04/13 04:56:51;;;;;;;6.60;5.95;;;11.90;99.90;;;;;;5954911;23;20294;-75
2022/04/13 04:59:18;;;;;;;7.00;6.40;;;11.90;99.90;;;;;;5965540;24;20214;-75
2022/04/13 05:01:45;;;;;;;7.40;6.22;;;11.90;99.90;;;;;;5973059;23;20293;-75
2022/04/13 05:04:12;;;;;;;7.38;6.68;;;11.90;99.90;;;;;;5969659;24;20266;-76
2022/04/13 05:06:40;;;;;;;6.55;5.85;;;11.90;99.90;;;;;;5973194;24;20246;-74
2022/04/13 05:09:07;;;;;;;6.88;6.18;;;11.80;99.90;;;;;;5970915;23;20191;-73
2022/04/13 05:11:34;;;;;;;9.52;6.25;;;11.80;99.90;;;;;;5965052;24;20194;-75
2022/04/13 05:14:01;;;;;;;7.00;5.85;;;11.70;99.90;;;;;;5960057;23;20217;-74
2022/04/13 05:16:28;;;;;;;7.75;6.40;;;11.70;99.90;;;;;;5971051;23;21147;-74
2022/04/13 05:18:55;;;;;;;7.22;6.53;;;11.60;99.90;;;;;;5971531;23;20241;-74
2022/04/13 05:21:22;;;;;;;7.15;5.88;;;11.60;99.90;;;;;;5970946;24;20636;-82
2022/04/13 05:23:50;;;;;;;6.13;5.63;;;11.60;99.90;;;;;;5974773;23;20500;-83
2022/04/13 05:26:18;;;;;;;8.30;6.28;;;11.50;99.90;;;;;;5966802;24;20190;-83
2022/04/13 05:28:47;;;;;;;7.20;6.47;;;11.50;99.90;;;;;;5976716;23;20214;-73
2022/04/13 05:31:14;;;;;;;6.25;5.75;;;11.50;99.90;;;;;;5975707;24;20193;-74
2022/04/13 05:33:41;;;;;;;9.18;5.80;;;11.50;99.90;;;;;;5972501;23;20318;-76
2022/04/13 05:36:09;;;;;;;6.90;6.30;;;11.50;99.90;;;;;;5974778;24;20234;-81
2022/04/13 05:38:36;;;;;;;6.43;5.82;;;11.60;99.90;;;;;;5974597;23;20265;-74
2022/04/13 05:41:04;;;;;;;7.70;6.90;;;11.60;99.90;;;;;;5974474;24;20267;-75
2022/04/13 05:43:33;;;;;;;8.95;6.90;;;11.60;99.90;;;;;;5973468;23;20600;-75
2022/04/13 05:46:00;;;;;;;6.82;6.22;;;11.70;99.90;;;;;;5974117;24;20195;-74
2022/04/13 05:48:27;;;;;;;8.65;6.18;;;11.70;99.90;;;;;;5973620;23;20721;-77
2022/04/13 05:50:54;;;;;;;7.90;6.82;;;11.70;99.90;;;;;;5976226;23;20599;-75
2022/04/13 05:53:22;;;;;;;8.23;6.57;;;11.80;99.90;;;;;;5968085;23;20196;-75
2022/04/13 05:55:55;;;;;;;6.95;6.25;;;11.80;99.90;;;;;;5958819;24;20215;-74
2022/04/13 05:58:25;;;;;;;9.57;6.55;;;11.80;99.90;;;;;;5975294;23;20216;-75
2022/04/13 06:00:52;;;;;;;8.15;7.35;;;11.90;99.90;;;;;;5972557;23;20662;-76
2022/04/13 06:03:19;;;;;;;9.75;6.45;;;11.90;99.90;;;;;;5975285;24;20253;-75
2022/04/13 06:05:47;;;;;;;7.30;6.60;;;11.90;99.90;;;;;;5975103;24;20194;-75
2022/04/13 06:08:14;;;;;;;7.13;6.43;;;12.00;99.90;;;;;;5975582;23;20281;-75
2022/04/13 06:10:41;;;;;;;7.30;6.55;;;12.10;99.90;;;;;;5975126;24;20257;-74
2022/04/13 06:13:08;;;;;;;7.25;5.65;;;12.20;99.90;;;;;;5969386;23;20183;-77
2022/04/13 06:15:36;;;;;;;8.90;6.85;;;12.20;99.90;;;;;;5972176;23;20201;-77
2022/04/13 06:18:04;;;;;;;8.02;6.93;;;12.30;99.90;;;;;;5960201;23;20285;-75
2022/04/13 06:20:31;;;;;;;7.40;6.70;;;12.30;99.90;;;;;;5975867;24;20191;-75
2022/04/13 06:22:58;;;;;;;7.30;6.60;;;12.40;99.90;;;;;;5972302;24;20660;-76
2022/04/13 06:25:25;;;;;;;7.50;6.80;;;12.50;99.90;;;;;;5973551;24;20191;-75
2022/04/13 06:27:52;;;;;;;9.38;7.03;;;12.50;99.90;;;;;;5972704;23;20211;-75
2022/04/13 06:30:19;;;;;;;6.70;6.10;;;12.70;99.90;;;;;;5974294;24;20205;-76
2022/04/13 06:32:47;;;;;;;10.68;6.47;;;12.80;99.90;;;;;;5973367;23;20190;-75
2022/04/13 06:35:16;;;;;;;8.02;6.43;;;12.90;99.90;;;;;;5975134;24;20262;-75
2022/04/13 06:37:45;;;;;;;6.97;6.38;;;13.10;99.90;;;;;;5969017;23;20226;-74
2022/04/13 06:40:13;;;;;;;7.53;6.75;;;13.20;99.90;;;;;;5966790;23;20184;-75
2022/04/13 06:42:41;;;;;;;7.30;6.30;;;13.40;99.90;;;;;;5959667;23;20190;-75
2022/04/13 06:45:10;;;;;;;8.53;6.50;;;13.70;99.90;;;;;;5967886;24;20484;-76
2022/04/13 06:47:37;;;;;;;7.80;7.10;;;14.00;99.90;;;;;;5969893;23;20886;-76
2022/04/13 06:50:07;;;;;;;6.37;5.77;;;14.30;99.90;;;;;;5962097;23;20545;-74
2022/04/13 06:52:35;;;;;;;7.47;6.20;;;14.50;99.90;;;;;;5964200;23;20483;-75
2022/04/13 06:55:02;;;;;;;6.63;6.00;;;14.80;99.90;;;;;;5972587;23;20445;-74
2022/04/13 06:57:30;;;;;;;7.13;5.90;;;15.10;99.90;;;;;;5975853;23;20497;-75
2022/04/13 06:59:57;;;;;;;7.43;6.70;;;15.30;99.90;;;;;;5972595;23;20536;-75
2022/04/13 07:02:26;;;;;;;7.10;6.43;;;15.60;99.90;;;;;;5964270;23;20459;-76
2022/04/13 07:04:53;;;;;;;6.87;6.27;;;15.90;99.90;;;;;;5972898;24;20446;-75
2022/04/13 07:07:22;;;;;;;8.13;6.57;;;16.20;99.90;;;;;;5980245;23;20485;-76
2022/04/13 07:09:49;;;;;;;6.83;6.23;;;16.40;99.90;;;;;;5969671;23;20445;-75
2022/04/13 07:12:16;;;;;;;6.53;5.80;;;16.70;99.90;;;;;;5983508;23;20440;-77
2022/04/13 07:14:43;;;;;;;6.43;5.83;;;17.10;99.90;;;;;;5974480;23;20469;-76
2022/04/13 07:17:10;;;;;;;7.20;6.60;;;17.40;99.90;;;;;;5960029;23;20470;-76
2022/04/13 07:19:37;;;;;;;6.20;5.70;;;17.50;99.90;;;;;;5967596;23;20953;-76
2022/04/13 07:22:05;;;;;;;6.63;6.03;;;17.70;99.90;;;;;;5986531;23;20437;-76
2022/04/13 07:24:34;;;;;;;5.83;5.33;;;17.90;99.90;;;;;;5984108;23;20972;-77
2022/04/13 07:27:01;;;;;;;7.80;6.03;;;18.10;99.90;;;;;;5983567;23;20469;-76
2022/04/13 07:29:28;;;;;;;8.23;6.30;;;18.40;99.90;;;;;;5984759;23;20441;-76
2022/04/13 07:31:55;;;;;;;6.70;5.67;;;18.80;99.90;;;;;;5970725;23;20443;-75
2022/04/13 07:34:23;;;;;;;6.90;6.20;;;19.10;99.90;;;;;;5965702;23;20928;-75
2022/04/13 07:36:49;;;;;;;6.70;6.10;;;19.40;99.90;;;;;;5970513;23;20469;-75
2022/04/13 07:39:16;;;;;;;6.37;5.77;;;19.70;99.90;;;;;;5976024;23;20599;-75
2022/04/13 07:41:45;;;;;;;6.27;5.73;;;19.90;99.90;;;;;;5965654;23;20528;-75
2022/04/13 07:44:12;;;;;;;6.93;6.33;;;20.10;99.90;;;;;;5970893;23;20517;-76
2022/04/13 07:46:39;;;;;;;6.97;6.00;;;20.40;99.40;;;;;;5959792;23;20459;-74
2022/04/13 07:49:08;;;;;;;6.50;5.60;;;20.50;98.90;;;;;;5963558;23;20498;-78
2022/04/13 07:51:35;;;;;;;6.90;6.20;;;20.70;98.50;;;;;;5977235;23;20434;-76
2022/04/13 07:54:03;;;;;;;9.37;6.30;;;21.00;97.80;;;;;;5983018;23;20434;-76
2022/04/13 07:56:30;;;;;;;5.60;5.00;;;21.40;97.40;;;;;;5970748;23;20555;-78
2022/04/13 07:58:59;;;;;;;7.07;6.37;;;21.70;96.80;;;;;;5970984;23;20448;-74
2022/04/13 08:01:26;;;;;;;6.00;5.03;;;22.10;95.90;;;;;;5976767;23;20472;-75
2022/04/13 08:03:53;;;;;;;7.83;5.40;;;22.40;94.90;;;;;;5968401;23;20475;-75
2022/04/13 08:06:20;;;;;;;5.83;5.17;;;22.60;94.60;;;;;;5964394;23;20487;-77
2022/04/13 08:08:46;;;;;;;5.97;5.00;;;23.00;94.20;;;;;;5965922;23;20636;-76
2022/04/13 08:11:13;;;;;;;6.87;5.03;;;23.60;93.70;;;;;;5973171;23;20504;-76
2022/04/13 08:13:41;;;;;;;6.10;5.50;;;24.10;93.40;;;;;;5976281;23;20541;-76
2022/04/13 08:16:09;;;;;;;7.13;5.67;;;24.60;92.40;;;;;;5974751;23;20827;-76
2022/04/13 08:18:36;;;;;;;7.30;5.40;;;24.70;91.20;;;;;;5981214;23;20446;-76
2022/04/13 08:21:04;;;;;;;5.60;5.10;;;24.80;90.70;;;;;;5973658;23;20438;-76
2022/04/13 08:23:31;;;;;;;6.60;5.17;;;25.10;89.60;;;;;;5966209;23;20497;-76
2022/04/13 08:25:58;;;;;;;5.87;5.03;;;25.20;88.50;;;;;;5978600;23;21009;-75
2022/04/13 08:28:25;;;;;;;6.17;5.53;;;25.40;87.90;;;;;;5973389;23;20442;-76
2022/04/13 08:30:52;;;;;;;6.90;5.37;;;25.40;86.90;;;;;;5970964;23;20443;-76
2022/04/13 08:33:20;;;;;;;6.80;5.73;;;25.60;85.90;;;;;;5968263;24;20469;-76
2022/04/13 08:35:47;;;;;;;7.10;5.63;;;25.60;84.10;;;;;;5972111;23;20454;-74
2022/04/13 08:38:14;;;;;;;6.23;5.50;;;25.60;83.90;;;;;;5972029;23;20474;-76
2022/04/13 08:40:50;;;;;;;6.00;5.40;;;25.50;84.60;;;;;;5974547;23;20441;-75
2022/04/13 08:43:22;;;;;;;6.10;5.40;;;25.40;84.50;;;;;;5973796;24;20463;-77
2022/04/13 08:45:56;;;;;;;6.77;6.17;;;25.80;82.80;;;;;;5969997;23;20535;-77
2022/04/13 08:48:27;;;;;;;6.60;6.00;;;26.30;80.10;;;;;;5963409;23;20477;-76
2022/04/13 08:50:59;;;;;;;7.10;5.50;;;26.50;79.90;;;;;;5963206;23;20487;-76
2022/04/13 08:53:29;;;;;;;6.40;5.57;;;27.00;78.70;;;;;;5969685;23;20437;-76
2022/04/13 08:55:58;;;;;;;8.63;4.70;;;26.90;72.30;;;;;;5971767;23;20526;-76
2022/04/13 08:58:34;;;;;;;5.43;4.13;;;26.80;72.60;;;;;;5971017;23;20471;-77
2022/04/13 09:01:10;;;;;;;7.97;5.30;;;27.10;73.80;;;;;;5956602;23;20514;-76
2022/04/13 09:03:43;;;;;;;5.07;4.67;;;27.60;72.00;;;;;;5961323;23;20445;-76
2022/04/13 09:06:12;;;;;;;4.23;3.30;;;27.90;68.90;;;;;;5981530;23;20465;-76
2022/04/13 09:08:48;;;;;;;5.20;4.03;;;28.40;66.60;;;;;;5976703;23;20446;-76
2022/04/13 09:11:17;;;;;;;3.67;3.37;;;28.60;65.60;;;;;;5968386;23;20460;-77
2022/04/13 09:13:45;;;;;;;6.27;3.47;;;28.80;64.70;;;;;;5968531;23;20524;-76
2022/04/13 09:16:14;;;;;;;5.83;3.80;;;29.00;64.20;;;;;;5967082;23;20458;-76
2022/04/13 09:18:44;;;;;;;5.40;3.70;;;29.40;63.80;;;;;;5973753;24;20469;-76
2022/04/13 09:21:13;;;;;;;5.27;3.70;;;29.70;63.00;;;;;;5965832;23;20879;-76
2022/04/13 09:23:40;;;;;;;5.73;3.40;;;30.20;61.70;;;;;;5966005;23;20484;-77
2022/04/13 09:26:09;;;;;;;5.20;3.80;;;30.70;59.80;;;;;;5979831;23;20468;-76
2022/04/13 09:28:37;;;;;;;3.20;2.90;;;30.80;58.20;;;;;;5975828;23;20496;-76
2022/04/13 09:31:04;;;;;;;6.40;2.90;;;30.80;57.60;;;;;;5972773;23;20477;-76
2022/04/13 09:33:31;;;;;;;4.10;3.03;;;30.80;56.30;;;;;;5971191;23;20971;-76
2022/04/13 09:35:59;;;;;;;3.67;3.13;;;30.80;57.00;;;;;;5973974;23;20463;-76
2022/04/13 09:38:28;;;;;;;5.10;3.67;;;30.80;56.10;;;;;;5961218;23;21068;-77
2022/04/13 09:41:05;;;;;;;5.40;3.67;;;31.00;56.40;;;;;;5964758;23;20441;-77
2022/04/13 09:43:32;;;;;;;5.50;3.50;;;31.30;55.70;;;;;;5968573;23;20442;-76
2022/04/13 09:45:59;;;;;;;5.00;3.10;;;31.60;55.40;;;;;;5980583;23;20476;-76
2022/04/13 09:48:28;;;;;;;6.20;2.90;;;31.60;52.40;;;;;;5967589;23;20937;-76
2022/04/13 09:51:01;;;;;;;5.03;2.93;;;31.40;51.60;;;;;;5969397;23;20461;-77
2022/04/13 09:53:28;;;;;;;4.43;2.80;;;31.00;51.50;;;;;;5968347;23;20459;-76
2022/04/13 09:55:55;;;;;;;3.33;2.70;;;30.60;51.30;;;;;;5972528;23;20988;-76
2022/04/13 09:58:25;;;;;;;3.63;2.90;;;30.60;50.80;;;;;;5980732;23;20470;-77
2022/04/13 10:00:54;;;;;;;4.23;2.60;;;30.50;50.10;;;;;;5973593;23;20450;-76
2022/04/13 10:03:22;;;;;;;2.50;2.30;;;30.30;49.50;;;;;;5967508;23;20446;-76
2022/04/13 10:05:51;;;;;;;3.90;2.13;;;30.30;48.60;;;;;;5973148;23;20509;-76
2022/04/13 10:08:23;;;;;;;4.70;2.27;;;30.40;48.30;;;;;;5981742;23;20541;-77
2022/04/13 10:10:51;;;;;;;4.43;2.77;;;30.20;48.40;;;;;;5958612;23;20492;-76
2022/04/13 10:13:34;;;;;;;5.47;2.77;;;30.20;48.70;;;;;;5959254;23;20449;-76
2022/04/13 10:16:02;;;;;;;2.13;1.93;;;30.30;48.50;;;;;;5963327;23;20548;-77
2022/04/13 10:18:31;;;;;;;2.80;2.43;;;30.40;48.20;;;;;;5954671;23;20473;-77
2022/04/13 10:20:58;;;;;;;5.13;2.27;;;30.50;47.90;;;;;;5981699;23;20503;-77
2022/04/13 10:23:26;;;;;;;5.30;2.27;;;30.60;47.50;;;;;;5996833;23;20490;-77
2022/04/13 10:26:09;;;;;;;2.40;2.20;;;30.80;47.60;;;;;;5968708;23;20549;-76
2022/04/13 10:28:47;;;;;;;3.97;2.30;;;30.50;46.80;;;;;;5965061;23;20918;-77
2022/04/13 10:31:14;;;;;;;4.00;2.47;;;30.80;47.30;;;;;;5969244;23;20446;-77
2022/04/13 10:33:47;;;;;;;4.63;2.80;;;31.20;48.00;;;;;;5997718;23;20928;-76
2022/04/13 10:36:15;;;;;;;3.63;2.43;;;31.40;47.20;;;;;;5992913;23;20565;-76
2022/04/13 10:38:44;;;;;;;4.00;2.20;;;31.10;47.20;;;;;;5975399;23;20482;-77
2022/04/13 10:41:17;;;;;;;4.33;2.40;;;31.10;46.40;;;;;;5987946;23;20464;-76
2022/04/13 10:43:48;;;;;;;2.10;1.90;;;31.50;45.60;;;;;;5981816;23;20499;-76
2022/04/13 10:46:18;;;;;;;2.30;2.10;;;31.90;45.60;;;;;;5943842;24;21032;-76
2022/04/13 10:48:47;;;;;;;3.50;1.97;;;32.40;44.50;;;;;;5970282;23;20445;-76
2022/04/13 10:51:18;;;;;;;3.70;2.30;;;32.90;43.10;;;;;;5973302;23;20438;-77
2022/04/13 10:53:53;;;;;;;2.63;2.03;;;33.00;43.30;;;;;;5976074;23;20469;-78
2022/04/13 10:56:22;;;;;;;3.43;2.27;;;33.20;43.70;;;;;;5966316;23;20520;-75
2022/04/13 10:58:59;;;;;;;2.67;2.00;;;33.30;44.30;;;;;;5970437;23;20470;-79
2022/04/13 11:01:32;;;;;;;3.70;2.20;;;33.10;44.80;;;;;;5963937;23;20434;-88
2022/04/13 11:03:59;;;;;;;2.97;1.90;;;32.90;45.30;;;;;;5970685;23;20500;-81
2022/04/13 11:06:26;;;;;;;3.07;2.57;;;32.70;45.10;;;;;;5971476;23;20471;-75
2022/04/13 11:09:04;;;;;;;3.10;2.13;;;32.90;44.60;;;;;;5975375;24;20516;-75
2022/04/13 11:11:35;;;;;;;5.00;2.77;;;33.00;44.90;;;;;;5975706;24;20438;-74
2022/04/13 11:14:16;;;;;;;2.80;2.40;;;32.80;44.90;;;;;;5973135;23;20454;-75
2022/04/13 11:16:43;;;;;;;2.50;1.93;;;32.30;45.20;;;;;;5974512;23;20536;-75
2022/04/13 11:19:20;;;;;;;4.77;1.97;;;32.20;44.70;;;;;;6001694;23;20769;-75
2022/04/13 11:22:13;;;;;;;2.27;1.80;;;31.80;44.00;;;;;;5948630;23;21093;-75
2022/04/13 11:24:43;;;;;;;3.77;1.83;;;31.60;44.00;;;;;;5965259;23;20520;-75
2022/04/13 11:27:11;;;;;;;3.70;1.97;;;31.50;44.00;;;;;;5974791;23;20524;-75
2022/04/13 11:29:40;;;;;;;3.50;1.70;;;31.80;44.70;;;;;;5970218;23;20940;-76
2022/04/13 11:32:10;;;;;;;4.17;2.20;;;32.10;43.90;;;;;;5975196;24;20481;-76
2022/04/13 11:34:43;;;;;;;3.23;2.10;;;32.40;42.70;;;;;;5947648;24;20427;-75
2022/04/13 11:37:11;;;;;;;3.63;2.10;;;32.50;42.50;;;;;;5956601;24;20465;-76
2022/04/13 11:39:48;;;;;;;2.70;1.70;;;32.20;42.50;;;;;;5963359;23;20828;-75
2022/04/13 11:42:32;;;;;;;4.17;1.90;;;32.00;42.50;;;;;;5962918;24;20437;-75
2022/04/13 11:45:02;;;;;;;2.30;1.40;;;31.80;43.10;;;;;;5972137;23;20456;-75
2022/04/13 11:47:37;;;;;;;3.57;1.60;;;31.80;43.60;;;;;;5949535;23;20494;-75
2022/04/13 11:50:20;;;;;;;2.53;1.57;;;32.00;43.30;;;;;;5963339;23;20445;-75
2022/04/13 11:52:49;;;;;;;2.40;1.60;;;32.30;43.30;;;;;;5970294;23;20442;-75
2022/04/13 11:55:22;;;;;;;3.23;1.60;;;32.60;42.90;;;;;;5983436;23;20593;-75
2022/04/13 11:58:01;;;;;;;2.23;1.70;;;32.80;43.20;;;;;;5964851;23;20455;-75
2022/04/13 12:00:38;;;;;;;1.63;1.43;;;33.20;42.10;;;;;;5967090;23;20955;-75
2022/04/13 12:03:07;;;;;;;2.73;1.80;;;33.50;42.50;;;;;;5974663;24;20441;-74
2022/04/13 12:05:36;;;;;;;2.37;1.60;;;33.50;41.90;;;;;;5959463;23;20462;-74
2022/04/13 12:08:09;;;;;;;2.37;1.60;;;33.50;42.30;;;;;;5985090;23;20453;-75
2022/04/13 12:10:46;;;;;;;2.87;1.83;;;33.40;41.60;;;;;;5972131;23;20438;-75
2022/04/13 12:13:14;;;;;;;3.83;1.73;;;33.20;42.00;;;;;;5970658;23;20799;-75
2022/04/13 12:15:43;;;;;;;3.23;2.10;;;33.00;42.00;;;;;;5970619;23;20464;-77
2022/04/13 12:18:11;;;;;;;2.77;1.80;;;33.00;42.30;;;;;;5978211;23;21148;-76
2022/04/13 12:20:38;;;;;;;2.07;1.77;;;32.80;42.10;;;;;;5973371;23;20814;-76
2022/04/13 12:23:29;;;;;;;3.33;1.90;;;32.50;42.10;;;;;;5972777;23;20843;-77
2022/04/13 12:25:58;;;;;;;2.53;1.70;;;32.40;42.20;;;;;;5935602;23;20457;-75
2022/04/13 12:28:25;;;;;;;4.23;2.10;;;32.50;42.70;;;;;;5962582;23;20457;-76
2022/04/13 12:30:57;;;;;;;5.93;2.00;;;32.60;43.10;;;;;;5967075;23;20449;-76
2022/04/13 12:33:25;;;;;;;4.03;1.90;;;32.80;43.00;;;;;;5965079;23;20466;-76
2022/04/13 12:35:53;;;;;;;3.60;2.17;;;32.90;42.90;;;;;;5972716;23;20463;-76
2022/04/13 12:38:25;;;;;;;2.80;1.80;;;33.10;43.00;;;;;;5979866;23;20469;-74
2022/04/13 12:41:13;;;;;;;4.30;1.70;;;33.40;42.90;;;;;;5967321;23;20490;-75
2022/04/13 12:43:42;;;;;;;3.30;1.77;;;33.70;41.80;;;;;;5959187;23;20445;-76
2022/04/13 12:46:17;;;;;;;3.87;1.90;;;33.70;42.00;;;;;;5971770;23;20458;-75
2022/04/13 12:48:45;;;;;;;5.27;2.10;;;33.70;41.70;;;;;;5977276;23;20460;-75
2022/04/13 12:51:14;;;;;;;5.53;2.20;;;33.40;42.10;;;;;;5971782;23;20521;-76
2022/04/13 12:53:43;;;;;;;5.63;2.30;;;33.20;42.40;;;;;;5969745;23;20522;-77
2022/04/13 12:56:13;;;;;;;4.00;2.10;;;33.10;42.10;;;;;;5964156;23;20462;-77